Time;durP1;ratioP1;P1;durP2;ratioP2;P2;SDS_P1;SDS_P2;PMS_P1;PMS_P2;Temp;Humidity;BMP_temperature;BMP_pressure;BME280_temperature;BME280_humidity;BME280_pressure;Samples;Min_cycle;Max_cycle;Signal;HPM_P1;HPM_P2
2022/08/08 00:00:17;;;;;;;;;;;17.60;93.50;;;;;;4385604;32;19949;-73
2022/08/08 00:03:02;;;;;;;;;;;17.70;93.50;;;;;;4385788;32;19950;-73
2022/08/08 00:05:47;;;;;;;;;;;17.70;93.40;;;;;;4392923;32;19954;-73
2022/08/08 00:08:33;;;;;;;;;;;17.70;93.40;;;;;;4399830;32;20010;-73
2022/08/08 00:11:12;;;;;;;;;;;17.80;93.40;;;;;;4400938;32;19950;-73
2022/08/08 00:13:40;;;;;;;;;;;17.70;93.40;;;;;;4401027;32;19967;-73
2022/08/08 00:16:08;;;;;;;;;;;17.60;93.70;;;;;;4400803;32;19946;-73
2022/08/08 00:18:44;;;;;;;;;;;17.60;93.80;;;;;;4401627;32;20353;-73
2022/08/08 00:21:13;;;;;;;;;;;17.50;93.90;;;;;;4402257;32;20346;-73
2022/08/08 00:23:57;;;;;;;;;;;17.50;93.90;;;;;;4401260;32;19953;-73
2022/08/08 00:26:25;;;;;;;;;;;17.60;93.70;;;;;;4400303;32;20381;-73
2022/08/08 00:28:53;;;;;;;;;;;17.60;93.80;;;;;;4401554;32;19956;-73
2022/08/08 00:31:20;;;;;;;;;;;17.50;94.10;;;;;;4401611;32;19952;-73
2022/08/08 00:33:50;;;;;;;;;;;17.60;94.10;;;;;;4400322;32;19953;-73
2022/08/08 00:36:26;;;;;;;;;;;17.50;94.10;;;;;;4400183;32;19953;-73
2022/08/08 00:38:58;;;;;;;;;;;17.40;94.30;;;;;;4401489;32;19957;-73
2022/08/08 00:41:38;;;;;;;;;;;17.40;94.60;;;;;;4401260;32;19942;-73
2022/08/08 00:44:13;;;;;;;;;;;17.30;94.80;;;;;;4400081;32;19991;-73
2022/08/08 00:46:46;;;;;;;;;;;17.30;95.40;;;;;;4400084;32;19956;-73
2022/08/08 00:49:26;;;;;;;;;;;17.40;96.30;;;;;;4400286;32;19953;-73
2022/08/08 00:52:11;;;;;;;;;;;17.40;95.40;;;;;;4404167;32;19949;-73
2022/08/08 00:54:45;;;;;;;;;;;17.40;95.30;;;;;;4391948;32;19942;-73
2022/08/08 00:57:34;;;;;;;;;;;17.10;95.60;;;;;;4399039;32;19961;-73
2022/08/08 01:00:00;;;;;;;;;;;17.10;95.70;;;;;;4389567;32;20251;-73
2022/08/08 01:02:46;;;;;;;;;;;16.90;96.30;;;;;;4400827;32;19965;-73
2022/08/08 01:05:26;;;;;;;;;;;16.80;96.40;;;;;;4389412;32;19960;-73
2022/08/08 01:08:00;;;;;;;;;;;16.90;96.30;;;;;;4400593;32;19969;-73
2022/08/08 01:10:37;;;;;;;;;;;16.90;96.30;;;;;;4401536;32;19953;-73
2022/08/08 01:13:04;;;;;;;;;;;16.90;96.40;;;;;;4401131;32;20353;-73
2022/08/08 01:15:50;;;;;;;;;;;16.90;96.40;;;;;;4401376;32;19941;-73
2022/08/08 01:18:22;;;;;;;;;;;17.00;96.30;;;;;;4398923;32;20370;-73
2022/08/08 01:21:08;;;;;;;;;;;17.00;96.10;;;;;;4402437;32;19961;-73
2022/08/08 01:23:53;;;;;;;;;;;16.90;96.30;;;;;;4389725;32;19957;-73
2022/08/08 01:26:25;;;;;;;;;;;16.80;96.70;;;;;;4388492;32;20382;-73
2022/08/08 01:29:10;;;;;;;;;;;16.90;96.70;;;;;;4387118;32;20374;-73
2022/08/08 01:31:52;;;;;;;;;;;16.90;96.70;;;;;;4384543;32;19942;-73
2022/08/08 01:34:35;;;;;;;;;;;16.70;97.20;;;;;;4384526;32;19949;-73
2022/08/08 01:37:20;;;;;;;;;;;16.70;97.20;;;;;;4384158;32;19954;-73
2022/08/08 01:40:06;;;;;;;;;;;16.70;97.20;;;;;;4394197;32;20029;-73
2022/08/08 01:42:39;;;;;;;;;;;16.70;97.30;;;;;;4395955;32;19954;-73
2022/08/08 01:45:14;;;;;;;;;;;16.60;97.60;;;;;;4385244;32;19965;-73
2022/08/08 01:48:00;;;;;;;;;;;16.60;97.70;;;;;;4401994;32;19953;-73
2022/08/08 01:50:45;;;;;;;;;;;16.60;97.90;;;;;;4396211;32;20315;-73
2022/08/08 01:53:13;;;;;;;;;;;16.50;98.00;;;;;;4389202;32;19949;-73
2022/08/08 01:55:45;;;;;;;;;;;16.40;97.90;;;;;;4400451;32;20299;-73
2022/08/08 01:58:16;;;;;;;;;;;16.30;98.00;;;;;;4400225;32;19941;-72
2022/08/08 02:00:48;;;;;;;;;;;16.30;98.00;;;;;;4399425;32;19954;-73
2022/08/08 02:03:17;;;;;;;;;;;16.30;98.00;;;;;;4400232;32;20012;-73
2022/08/08 02:06:03;;;;;;;;;;;16.30;98.20;;;;;;4399853;32;19949;-73
2022/08/08 02:08:48;;;;;;;;;;;16.40;98.10;;;;;;4388455;32;20421;-73
2022/08/08 02:11:32;;;;;;;;;;;16.50;97.90;;;;;;4388810;32;19968;-73
2022/08/08 02:14:00;;;;;;;;;;;16.50;98.30;;;;;;4399703;32;19953;-73
2022/08/08 02:16:42;;;;;;;;;;;16.50;98.10;;;;;;4400440;32;19957;-72
2022/08/08 02:19:11;;;;;;;;;;;16.60;97.90;;;;;;4398892;32;19953;-72
2022/08/08 02:22:44;;;;;;;;;;;16.40;97.90;;;;;;4400699;32;20311;-73
2022/08/08 02:24:33;;;;;;;;;;;16.40;98.20;;;;;;4387593;32;19950;-73
2022/08/08 02:27:03;;;;;;;;;;;16.40;98.60;;;;;;4398166;32;20007;-72
2022/08/08 02:29:35;;;;;;;;;;;16.50;99.10;;;;;;4384629;32;19956;-72
2022/08/08 02:32:09;;;;;;;;;;;16.50;99.90;;;;;;4384707;32;20364;-72
2022/08/08 02:34:54;;;;;;;;;;;16.50;99.90;;;;;;4391792;32;19957;-72
2022/08/08 02:37:25;;;;;;;;;;;16.50;99.90;;;;;;4397574;32;19941;-72
2022/08/08 02:40:05;;;;;;;;;;;16.50;99.90;;;;;;4400349;32;20311;-73
2022/08/08 02:42:50;;;;;;;;;;;16.40;99.90;;;;;;4398778;32;20246;-73
2022/08/08 02:45:26;;;;;;;;;;;16.30;99.90;;;;;;4388758;32;19957;-73
2022/08/08 02:48:11;;;;;;;;;;;16.30;99.90;;;;;;4398995;32;19957;-73
2022/08/08 02:50:57;;;;;;;;;;;16.20;99.90;;;;;;4388691;32;20282;-73
2022/08/08 02:53:41;;;;;;;;;;;16.20;99.90;;;;;;4387525;32;19954;-73
2022/08/08 02:56:26;;;;;;;;;;;16.20;99.90;;;;;;4409659;32;19949;-73
2022/08/08 02:59:12;;;;;;;;;;;16.10;99.90;;;;;;4394086;32;19954;-72
2022/08/08 03:01:55;;;;;;;;;;;16.00;99.90;;;;;;4387447;32;19953;-73
2022/08/08 03:04:40;;;;;;;;;;;16.10;99.90;;;;;;4400319;32;20315;-72
2022/08/08 03:07:25;;;;;;;;;;;16.10;99.90;;;;;;4390971;32;19956;-72
2022/08/08 03:10:11;;;;;;;;;;;16.20;99.90;;;;;;4399258;32;19999;-73
2022/08/08 03:12:56;;;;;;;;;;;16.10;99.90;;;;;;4389019;32;20275;-71
2022/08/08 03:15:31;;;;;;;;;;;16.00;99.90;;;;;;4389271;32;20004;-73
2022/08/08 03:18:23;;;;;;;;;;;15.90;99.90;;;;;;4399608;32;20001;-73
2022/08/08 03:20:52;;;;;;;;;;;15.90;99.90;;;;;;4401607;32;19941;-73
2022/08/08 03:23:18;;;;;;;;;;;16.00;99.90;;;;;;4401857;32;20290;-73
2022/08/08 03:25:45;;;;;;;;;;;15.90;99.90;;;;;;4401168;32;19961;-73
2022/08/08 03:28:31;;;;;;;;;;;16.00;99.90;;;;;;4402175;32;20004;-73
2022/08/08 03:30:57;;;;;;;;;;;16.00;99.90;;;;;;4386359;32;19946;-73
2022/08/08 03:33:23;;;;;;;;;;;16.00;99.90;;;;;;4387367;32;19957;-73
2022/08/08 03:35:49;;;;;;;;;;;15.90;99.90;;;;;;4391034;32;20299;-73
2022/08/08 03:38:15;;;;;;;;;;;15.90;99.90;;;;;;4402250;32;20373;-73
2022/08/08 03:40:47;;;;;;;;;;;15.80;99.90;;;;;;4403016;32;19956;-73
2022/08/08 03:43:12;;;;;;;;;;;15.80;99.90;;;;;;4402299;32;19945;-73
2022/08/08 03:45:40;;;;;;;;;;;15.70;99.90;;;;;;4400504;32;19986;-73
2022/08/08 03:48:08;;;;;;;;;;;15.70;99.90;;;;;;4400986;32;19949;-73
2022/08/08 03:50:35;;;;;;;;;;;15.80;99.90;;;;;;4402117;32;19946;-73
2022/08/08 03:53:04;;;;;;;;;;;15.80;99.90;;;;;;4412162;32;19973;-74
2022/08/08 03:55:30;;;;;;;;;;;15.80;99.90;;;;;;4405072;32;19945;-73
2022/08/08 03:57:55;;;;;;;;;;;15.70;99.90;;;;;;4401191;32;19996;-73
2022/08/08 04:00:22;;;;;;;;;;;15.70;99.90;;;;;;4400707;32;20366;-74
2022/08/08 04:03:04;;;;;;;;;;;15.70;99.90;;;;;;4401966;32;20382;-73
2022/08/08 04:05:31;;;;;;;;;;;15.70;99.90;;;;;;4401257;32;19950;-73
2022/08/08 04:07:57;;;;;;;;;;;15.80;99.90;;;;;;4400839;32;19942;-74
2022/08/08 04:10:23;;;;;;;;;;;15.90;99.90;;;;;;4402007;32;19977;-73
2022/08/08 04:12:48;;;;;;;;;;;15.90;99.90;;;;;;4400925;32;19953;-73
2022/08/08 04:15:14;;;;;;;;;;;15.90;99.90;;;;;;4401298;32;19953;-75
2022/08/08 04:17:40;;;;;;;;;;;16.00;99.90;;;;;;4402479;32;20148;-73
2022/08/08 04:20:05;;;;;;;;;;;16.00;99.90;;;;;;4401336;32;19988;-72
2022/08/08 04:22:31;;;;;;;;;;;16.00;99.90;;;;;;4401540;32;19945;-74
2022/08/08 04:24:56;;;;;;;;;;;16.00;99.90;;;;;;4400801;32;19946;-74
2022/08/08 04:27:23;;;;;;;;;;;16.00;99.90;;;;;;4400400;32;19965;-74
2022/08/08 04:29:48;;;;;;;;;;;16.00;99.90;;;;;;4390844;32;19954;-73
2022/08/08 04:32:14;;;;;;;;;;;15.90;99.90;;;;;;4388023;32;20054;-74
2022/08/08 04:34:40;;;;;;;;;;;16.00;99.90;;;;;;4399869;32;20047;-73
2022/08/08 04:37:06;;;;;;;;;;;16.00;99.90;;;;;;4400972;32;19976;-73
2022/08/08 04:39:31;;;;;;;;;;;16.10;99.90;;;;;;4400545;32;19946;-72
2022/08/08 04:41:56;;;;;;;;;;;16.10;99.90;;;;;;4400186;32;20396;-72
2022/08/08 04:44:22;;;;;;;;;;;16.10;99.90;;;;;;4400379;32;20018;-72
2022/08/08 04:46:47;;;;;;;;;;;16.10;99.90;;;;;;4400533;32;19941;-72
2022/08/08 04:49:13;;;;;;;;;;;16.10;99.90;;;;;;4400573;32;20608;-73
2022/08/08 04:51:38;;;;;;;;;;;16.10;99.90;;;;;;4398179;32;89045;-73
2022/08/08 04:54:04;;;;;;;;;;;16.10;99.90;;;;;;4404191;32;19953;-72
2022/08/08 04:56:29;;;;;;;;;;;16.20;99.90;;;;;;4416463;32;19998;-73
2022/08/08 04:58:54;;;;;;;;;;;16.20;99.90;;;;;;4415519;32;20132;-72
2022/08/08 05:01:20;;;;;;;;;;;16.30;99.90;;;;;;4399399;32;19969;-73
2022/08/08 05:03:46;;;;;;;;;;;16.30;99.90;;;;;;4400506;32;20346;-73
2022/08/08 05:06:11;;;;;;;;;;;16.40;99.90;;;;;;4405801;32;19945;-73
2022/08/08 05:08:37;;;;;;;;;;;16.50;99.90;;;;;;4400317;32;19960;-72
2022/08/08 05:11:02;;;;;;;;;;;16.60;99.90;;;;;;4400343;32;20007;-72
2022/08/08 05:13:28;;;;;;;;;;;16.60;99.90;;;;;;4400320;32;19945;-72
2022/08/08 05:15:53;;;;;;;;;;;16.70;99.90;;;;;;4400392;32;19960;-72
2022/08/08 05:18:18;;;;;;;;;;;16.80;99.90;;;;;;4407110;32;19953;-72
2022/08/08 05:20:44;;;;;;;;;;;16.80;99.90;;;;;;4415522;32;19946;-72
2022/08/08 05:23:09;;;;;;;;;;;16.90;99.90;;;;;;4400805;32;20358;-72
2022/08/08 05:25:35;;;;;;;;;;;17.00;99.90;;;;;;4399752;32;20350;-72
2022/08/08 05:28:00;;;;;;;;;;;17.10;99.90;;;;;;4400715;32;20326;-72
2022/08/08 05:30:26;;;;;;;;;;;17.20;99.90;;;;;;4399188;32;19953;-72
2022/08/08 05:32:52;;;;;;;;;;;17.20;99.90;;;;;;4400798;32;20345;-72
2022/08/08 05:35:20;;;;;;;;;;;17.30;99.80;;;;;;4400260;32;19952;-73
2022/08/08 05:37:53;;;;;;;;;;;17.30;99.50;;;;;;4400232;32;19945;-73
2022/08/08 05:40:19;;;;;;;;;;;17.40;99.00;;;;;;4399439;32;20016;-73
2022/08/08 05:42:48;;;;;;;;;;;17.50;99.10;;;;;;4399071;32;19950;-73
2022/08/08 05:45:13;;;;;;;;;;;17.50;98.90;;;;;;4400953;32;20008;-73
2022/08/08 05:47:39;;;;;;;;;;;17.60;98.90;;;;;;4400282;32;19957;-73
2022/08/08 05:50:05;;;;;;;;;;;17.60;98.70;;;;;;4399662;32;20365;-73
2022/08/08 05:52:32;;;;;;;;;;;17.70;98.90;;;;;;4400571;32;19957;-73
2022/08/08 05:54:58;;;;;;;;;;;17.80;98.20;;;;;;4409808;32;20384;-73
2022/08/08 05:57:26;;;;;;;;;;;17.90;97.50;;;;;;4414716;32;19998;-73
2022/08/08 05:59:51;;;;;;;;;;;18.00;97.40;;;;;;4408438;32;20001;-73
2022/08/08 06:03:19;;;;;;;;;;;18.10;97.00;;;;;;4399182;32;19957;-72
2022/08/08 06:05:07;;;;;;;;;;;18.20;96.90;;;;;;4398924;32;19956;-72
2022/08/08 06:07:34;;;;;;;;;;;18.30;96.80;;;;;;4400588;32;19945;-73
2022/08/08 06:10:01;;;;;;;;;;;18.40;96.70;;;;;;4400052;32;20355;-73
2022/08/08 06:12:27;;;;;;;;;;;18.40;96.60;;;;;;4400088;32;20395;-73
2022/08/08 06:14:53;;;;;;;;;;;18.50;96.30;;;;;;4400680;32;19949;-72
2022/08/08 06:17:19;;;;;;;;;;;18.60;96.10;;;;;;4399198;32;20004;-72
2022/08/08 06:19:46;;;;;;;;;;;18.60;96.00;;;;;;4400466;32;19962;-72
2022/08/08 06:22:12;;;;;;;;;;;18.60;96.60;;;;;;4400636;32;19968;-72
2022/08/08 06:24:37;;;;;;;;;;;18.70;95.80;;;;;;4399301;32;20011;-72
2022/08/08 06:27:03;;;;;;;;;;;18.70;95.50;;;;;;4398959;32;19972;-72
2022/08/08 06:29:34;;;;;;;;;;;18.70;95.10;;;;;;4399942;32;19941;-72
2022/08/08 06:32:01;;;;;;;;;;;18.80;94.60;;;;;;4399727;32;19956;-73
2022/08/08 06:34:29;;;;;;;;;;;18.80;94.80;;;;;;4399851;32;19942;-73
2022/08/08 06:36:56;;;;;;;;;;;18.90;95.10;;;;;;4398910;32;19995;-73
2022/08/08 06:39:23;;;;;;;;;;;19.00;95.30;;;;;;4398890;32;19941;-74
2022/08/08 06:41:49;;;;;;;;;;;19.10;94.60;;;;;;4399125;32;20377;-73
2022/08/08 06:44:16;;;;;;;;;;;19.10;94.50;;;;;;4399068;32;19956;-73
2022/08/08 06:46:43;;;;;;;;;;;19.30;94.40;;;;;;4398303;32;19994;-73
2022/08/08 06:49:08;;;;;;;;;;;19.30;94.10;;;;;;4398754;32;19945;-73
2022/08/08 06:51:34;;;;;;;;;;;19.50;94.20;;;;;;4399201;32;19952;-72
2022/08/08 06:54:01;;;;;;;;;;;19.50;94.20;;;;;;4401240;32;19993;-72
2022/08/08 06:56:28;;;;;;;;;;;19.60;94.00;;;;;;4416102;32;19953;-72
2022/08/08 06:58:54;;;;;;;;;;;19.70;93.90;;;;;;4416966;32;20338;-72
2022/08/08 07:01:19;;;;;;;;;;;19.70;93.30;;;;;;4403547;32;20005;-72
2022/08/08 07:03:51;;;;;;;;;;;19.80;92.50;;;;;;4402192;32;20009;-72
2022/08/08 07:06:19;;;;;;;;;;;20.00;92.20;;;;;;4401870;32;19953;-72
2022/08/08 07:08:46;;;;;;;;;;;20.00;92.30;;;;;;4402051;32;19994;-72
2022/08/08 07:11:15;;;;;;;;;;;20.00;92.50;;;;;;4402723;32;19949;-72
2022/08/08 07:13:42;;;;;;;;;;;20.20;92.70;;;;;;4401032;32;20354;-73
2022/08/08 07:16:11;;;;;;;;;;;20.30;92.20;;;;;;4401245;32;20346;-73
2022/08/08 07:18:43;;;;;;;;;;;20.40;92.00;;;;;;4401918;32;20018;-73
2022/08/08 07:21:11;;;;;;;;;;;20.50;91.80;;;;;;4402177;32;20019;-73
2022/08/08 07:23:40;;;;;;;;;;;20.60;91.80;;;;;;4401654;32;19941;-73
2022/08/08 07:26:07;;;;;;;;;;;20.70;91.30;;;;;;4402235;32;20287;-73
2022/08/08 07:28:35;;;;;;;;;;;20.80;90.90;;;;;;4401174;32;19956;-73
2022/08/08 07:31:02;;;;;;;;;;;20.90;90.70;;;;;;4401383;32;19946;-73
2022/08/08 07:33:28;;;;;;;;;;;21.00;90.50;;;;;;4400750;32;19983;-73
2022/08/08 07:35:55;;;;;;;;;;;21.20;90.40;;;;;;4401995;32;20004;-73
2022/08/08 07:38:21;;;;;;;;;;;21.30;90.10;;;;;;4401161;32;19945;-73
2022/08/08 07:40:47;;;;;;;;;;;21.40;89.90;;;;;;4401635;32;20377;-73
2022/08/08 07:43:13;;;;;;;;;;;21.60;89.70;;;;;;4400521;32;19952;-73
2022/08/08 07:45:39;;;;;;;;;;;21.70;89.00;;;;;;4401764;32;19953;-73
2022/08/08 07:48:05;;;;;;;;;;;21.90;88.60;;;;;;4402426;32;19945;-73
2022/08/08 07:50:32;;;;;;;;;;;22.00;87.80;;;;;;4401448;32;20394;-73
2022/08/08 07:52:58;;;;;;;;;;;22.10;86.00;;;;;;4401174;32;19942;-73
2022/08/08 07:55:25;;;;;;;;;;;22.30;83.60;;;;;;4403445;32;20392;-73
2022/08/08 07:57:55;;;;;;;;;;;22.40;83.80;;;;;;4401290;32;20033;-73
2022/08/08 08:00:23;;;;;;;;;;;22.50;82.90;;;;;;4401479;32;19949;-73
2022/08/08 08:03:06;;;;;;;;;;;22.70;81.80;;;;;;4392356;32;20314;-73
2022/08/08 08:05:34;;;;;;;;;;;22.90;81.60;;;;;;4401570;32;19964;-73
2022/08/08 08:08:01;;;;;;;;;;;23.10;81.30;;;;;;4401725;32;19949;-73
2022/08/08 08:10:27;;;;;;;;;;;23.20;80.40;;;;;;4401736;32;19957;-73
2022/08/08 08:13:19;;;;;;;;;;;23.30;79.20;;;;;;4402139;32;20377;-73
2022/08/08 08:15:47;;;;;;;;;;;23.40;79.10;;;;;;4401708;32;19961;-73
2022/08/08 08:18:13;;;;;;;;;;;23.60;79.40;;;;;;4401898;32;19953;-73
2022/08/08 08:20:39;;;;;;;;;;;23.60;78.00;;;;;;4402096;32;19953;-73
2022/08/08 08:23:04;;;;;;;;;;;23.70;77.70;;;;;;4400448;32;20378;-73
2022/08/08 08:25:30;;;;;;;;;;;23.80;77.60;;;;;;4400604;32;20012;-73
2022/08/08 08:27:55;;;;;;;;;;;23.90;76.60;;;;;;4400629;32;20065;-73
2022/08/08 08:30:20;;;;;;;;;;;23.90;75.90;;;;;;4397099;32;19945;-73
2022/08/08 08:32:46;;;;;;;;;;;23.90;75.00;;;;;;4387766;32;20017;-73
2022/08/08 08:35:11;;;;;;;;;;;24.00;74.70;;;;;;4400978;32;20001;-73
2022/08/08 08:37:37;;;;;;;;;;;24.00;74.50;;;;;;4400754;32;20378;-73
2022/08/08 08:40:04;;;;;;;;;;;24.10;75.50;;;;;;4400556;32;19999;-73
2022/08/08 08:42:30;;;;;;;;;;;24.20;74.90;;;;;;4400990;32;20341;-73
2022/08/08 08:44:56;;;;;;;;;;;24.20;73.70;;;;;;4400158;32;19953;-73
2022/08/08 08:47:22;;;;;;;;;;;24.20;75.20;;;;;;4384808;32;19943;-73
2022/08/08 08:49:47;;;;;;;;;;;24.30;74.20;;;;;;4386825;32;19957;-73
2022/08/08 08:52:15;;;;;;;;;;;24.40;73.90;;;;;;4400148;32;19945;-73
2022/08/08 08:54:40;;;;;;;;;;;24.40;73.10;;;;;;4406328;32;19945;-73
2022/08/08 08:57:07;;;;;;;;;;;24.60;72.70;;;;;;4416688;32;20019;-73
2022/08/08 08:59:34;;;;;;;;;;;24.60;72.20;;;;;;4414988;32;20354;-73
2022/08/08 09:02:00;;;;;;;;;;;24.70;73.10;;;;;;4400351;32;19945;-73
2022/08/08 09:04:30;;;;;;;;;;;24.70;72.90;;;;;;4401076;32;19950;-73
2022/08/08 09:06:57;;;;;;;;;;;24.80;71.10;;;;;;4400432;32;19945;-73
2022/08/08 09:09:25;;;;;;;;;;;24.90;70.70;;;;;;4401533;32;20380;-73
2022/08/08 09:11:51;;;;;;;;;;;24.90;71.20;;;;;;4400096;32;19941;-72
2022/08/08 09:14:17;;;;;;;;;;;25.10;71.10;;;;;;4399925;32;20061;-72
2022/08/08 09:16:43;;;;;;;;;;;25.10;71.10;;;;;;4399592;32;19950;-72
2022/08/08 09:19:09;;;;;;;;;;;25.30;68.90;;;;;;4400148;32;20005;-72
2022/08/08 09:21:35;;;;;;;;;;;25.30;68.10;;;;;;4399722;32;20005;-73
2022/08/08 09:24:01;;;;;;;;;;;25.40;68.90;;;;;;4400104;32;20354;-73
2022/08/08 09:26:46;;;;;;;;;;;25.50;68.20;;;;;;4399449;32;19946;-73
2022/08/08 09:29:15;;;;;;;;;;;25.60;68.60;;;;;;4389732;32;20291;-73
2022/08/08 09:31:51;;;;;;;;;;;25.60;68.40;;;;;;4396382;32;19956;-73
2022/08/08 09:34:17;;;;;;;;;;;25.40;68.60;;;;;;4384697;32;20008;-72
2022/08/08 09:36:45;;;;;;;;;;;25.50;69.30;;;;;;4391257;32;19942;-73
2022/08/08 09:39:10;;;;;;;;;;;25.80;68.20;;;;;;4400762;32;19954;-72
2022/08/08 09:41:37;;;;;;;;;;;25.90;66.40;;;;;;4400049;32;19945;-72
2022/08/08 09:44:07;;;;;;;;;;;26.10;67.30;;;;;;4399555;32;19946;-72
2022/08/08 09:46:33;;;;;;;;;;;26.30;66.00;;;;;;4399657;32;19942;-73
2022/08/08 09:48:59;;;;;;;;;;;26.20;64.70;;;;;;4400996;32;19956;-73
2022/08/08 09:51:28;;;;;;;;;;;26.10;65.00;;;;;;4399673;32;19949;-72
2022/08/08 09:53:57;;;;;;;;;;;26.20;66.60;;;;;;4400749;32;20013;-72
2022/08/08 09:56:22;;;;;;;;;;;26.40;64.80;;;;;;4415651;32;19969;-72
2022/08/08 09:58:59;;;;;;;;;;;26.40;64.30;;;;;;4414313;32;20350;-73
2022/08/08 10:01:25;;;;;;;;;;;26.40;64.70;;;;;;4388994;32;19968;-72
2022/08/08 10:03:53;;;;;;;;;;;26.50;64.60;;;;;;4400728;32;19953;-73
2022/08/08 10:06:20;;;;;;;;;;;26.60;63.80;;;;;;4399677;32;19961;-73
2022/08/08 10:08:46;;;;;;;;;;;26.70;63.90;;;;;;4399463;32;19970;-73
2022/08/08 10:11:15;;;;;;;;;;;26.90;64.00;;;;;;4398582;32;20004;-72
2022/08/08 10:13:50;;;;;;;;;;;26.80;63.60;;;;;;4399693;32;19955;-72
2022/08/08 10:16:16;;;;;;;;;;;26.90;63.30;;;;;;4398405;32;19954;-73
2022/08/08 10:18:41;;;;;;;;;;;26.70;63.70;;;;;;4398799;32;19956;-72
2022/08/08 10:21:09;;;;;;;;;;;26.90;63.40;;;;;;4398738;32;19964;-73
2022/08/08 10:23:38;;;;;;;;;;;27.10;63.40;;;;;;4399284;32;19949;-73
2022/08/08 10:26:04;;;;;;;;;;;27.30;63.90;;;;;;4399913;32;20322;-73
2022/08/08 10:28:30;;;;;;;;;;;27.40;61.70;;;;;;4399491;32;19945;-73
2022/08/08 10:30:59;;;;;;;;;;;27.60;62.50;;;;;;4398708;32;19960;-73
2022/08/08 10:33:28;;;;;;;;;;;27.80;61.40;;;;;;4386421;32;19995;-73
2022/08/08 10:35:55;;;;;;;;;;;28.10;61.20;;;;;;4383801;32;19953;-73
2022/08/08 10:38:20;;;;;;;;;;;28.60;61.40;;;;;;4383874;32;19957;-73
2022/08/08 10:40:49;;;;;;;;;;;28.70;59.90;;;;;;4398077;32;20291;-73
2022/08/08 10:43:15;;;;;;;;;;;28.90;59.60;;;;;;4399519;32;19949;-73
2022/08/08 10:45:41;;;;;;;;;;;29.00;58.80;;;;;;4398597;32;19942;-73
2022/08/08 10:48:08;;;;;;;;;;;29.10;58.50;;;;;;4398162;32;20167;-73
2022/08/08 10:50:35;;;;;;;;;;;29.10;58.90;;;;;;4398860;32;20354;-73
2022/08/08 10:53:02;;;;;;;;;;;29.40;58.50;;;;;;4398856;32;19960;-74
2022/08/08 10:55:27;;;;;;;;;;;29.10;58.90;;;;;;4408757;32;19953;-73
2022/08/08 10:57:53;;;;;;;;;;;29.30;58.40;;;;;;4405493;32;19999;-73
2022/08/08 11:00:19;;;;;;;;;;;29.10;57.70;;;;;;4399222;32;19946;-73
2022/08/08 11:02:45;;;;;;;;;;;29.10;57.90;;;;;;4399705;32;19937;-73
2022/08/08 11:05:12;;;;;;;;;;;29.10;58.40;;;;;;4399464;32;19970;-73
2022/08/08 11:07:39;;;;;;;;;;;28.80;57.60;;;;;;4398044;32;19949;-73
2022/08/08 11:10:14;;;;;;;;;;;28.80;58.80;;;;;;4399599;32;20303;-73
2022/08/08 11:12:55;;;;;;;;;;;28.60;59.40;;;;;;4398958;32;19997;-73
2022/08/08 11:15:22;;;;;;;;;;;28.40;59.60;;;;;;4400249;32;19945;-73
2022/08/08 11:17:48;;;;;;;;;;;28.30;59.40;;;;;;4398459;32;19945;-73
2022/08/08 11:20:15;;;;;;;;;;;28.30;59.70;;;;;;4399793;32;19957;-73
2022/08/08 11:22:40;;;;;;;;;;;27.90;58.90;;;;;;4398927;32;19950;-73
2022/08/08 11:25:06;;;;;;;;;;;27.80;60.10;;;;;;4399473;32;20044;-73
2022/08/08 11:27:33;;;;;;;;;;;27.60;59.80;;;;;;4398109;32;20003;-73
2022/08/08 11:30:00;;;;;;;;;;;27.30;60.20;;;;;;4399078;32;19953;-73
2022/08/08 11:32:26;;;;;;;;;;;27.20;60.50;;;;;;4391990;32;19949;-72
2022/08/08 11:34:54;;;;;;;;;;;27.20;60.60;;;;;;4396444;32;19991;-73
2022/08/08 11:37:21;;;;;;;;;;;27.30;60.50;;;;;;4398189;32;19941;-72
2022/08/08 11:39:46;;;;;;;;;;;27.90;60.20;;;;;;4399197;32;20382;-72
2022/08/08 11:42:12;;;;;;;;;;;28.60;59.50;;;;;;4401592;32;19949;-74
2022/08/08 11:44:38;;;;;;;;;;;29.10;59.10;;;;;;4401159;32;19956;-72
2022/08/08 11:47:03;;;;;;;;;;;29.50;58.20;;;;;;4400720;32;19960;-72
2022/08/08 11:49:29;;;;;;;;;;;29.90;57.00;;;;;;4400909;32;19951;-73
2022/08/08 11:51:55;;;;;;;;;;;29.50;57.10;;;;;;4401824;32;19957;-72
2022/08/08 11:54:28;;;;;;;;;;;29.10;58.10;;;;;;4404413;32;20372;-72
2022/08/08 11:56:54;;;;;;;;;;;28.60;58.40;;;;;;4415748;32;20003;-73
2022/08/08 11:59:29;;;;;;;;;;;28.30;58.00;;;;;;4412239;32;19942;-73
2022/08/08 12:02:02;;;;;;;;;;;28.20;59.10;;;;;;4400979;32;19961;-73
2022/08/08 12:04:28;;;;;;;;;;;28.10;59.50;;;;;;4400568;32;20357;-73
2022/08/08 12:07:01;;;;;;;;;;;28.10;59.30;;;;;;4400639;32;19957;-73
2022/08/08 12:09:27;;;;;;;;;;;29.00;59.00;;;;;;4401059;32;19942;-73
2022/08/08 12:11:52;;;;;;;;;;;29.60;57.80;;;;;;4400270;32;20373;-73
2022/08/08 12:14:22;;;;;;;;;;;30.20;57.00;;;;;;4400232;32;19949;-73
2022/08/08 12:16:48;;;;;;;;;;;30.60;55.50;;;;;;4401171;32;20007;-74
2022/08/08 12:19:13;;;;;;;;;;;31.10;55.10;;;;;;4401253;32;19953;-73
2022/08/08 12:21:39;;;;;;;;;;;31.60;55.00;;;;;;4400911;32;19954;-73
2022/08/08 12:24:08;;;;;;;;;;;30.90;55.30;;;;;;4400085;32;20006;-73
2022/08/08 12:26:36;;;;;;;;;;;30.90;55.40;;;;;;4401347;32;19956;-73
2022/08/08 12:29:18;;;;;;;;;;;31.00;55.30;;;;;;4401400;32;19979;-73
2022/08/08 12:31:43;;;;;;;;;;;31.00;55.30;;;;;;4400152;32;19957;-73
2022/08/08 12:34:09;;;;;;;;;;;31.00;54.70;;;;;;4400294;32;20386;-73
2022/08/08 12:36:39;;;;;;;;;;;31.10;55.10;;;;;;4400243;32;20278;-73
2022/08/08 12:39:04;;;;;;;;;;;31.30;54.60;;;;;;4399964;32;19949;-74
2022/08/08 12:41:31;;;;;;;;;;;32.00;53.50;;;;;;4400746;32;20382;-73
2022/08/08 12:44:04;;;;;;;;;;;32.80;52.90;;;;;;4400609;32;19986;-74
2022/08/08 12:46:30;;;;;;;;;;;33.00;52.10;;;;;;4399903;32;19964;-74
2022/08/08 12:48:57;;;;;;;;;;;33.30;52.30;;;;;;4399579;32;20067;-73
2022/08/08 12:51:22;;;;;;;;;;;33.10;51.20;;;;;;4401665;32;20413;-73
2022/08/08 12:53:56;;;;;;;;;;;32.20;52.20;;;;;;4399478;32;19956;-73
2022/08/08 12:56:30;;;;;;;;;;;31.30;53.20;;;;;;4414642;32;20399;-72
2022/08/08 12:58:56;;;;;;;;;;;30.40;54.80;;;;;;4409226;32;19999;-72
2022/08/08 13:01:37;;;;;;;;;;;29.80;55.60;;;;;;4400511;32;19957;-72
2022/08/08 13:04:19;;;;;;;;;;;29.20;56.60;;;;;;4399778;32;19961;-72
2022/08/08 13:06:52;;;;;;;;;;;28.70;57.60;;;;;;4400184;32;19949;-72
2022/08/08 13:09:38;;;;;;;;;;;28.90;58.00;;;;;;4400806;32;19995;-73
2022/08/08 13:12:11;;;;;;;;;;;30.40;56.30;;;;;;4389415;32;19954;-73
2022/08/08 13:14:38;;;;;;;;;;;31.40;54.10;;;;;;4399444;32;20402;-74
2022/08/08 13:17:04;;;;;;;;;;;31.90;53.60;;;;;;4400792;32;19953;-74
2022/08/08 13:19:30;;;;;;;;;;;32.80;52.10;;;;;;4399555;32;20379;-74
2022/08/08 13:21:55;;;;;;;;;;;33.20;51.70;;;;;;4400088;32;20052;-74
2022/08/08 13:24:21;;;;;;;;;;;33.50;50.90;;;;;;4399856;32;20397;-75
2022/08/08 13:26:46;;;;;;;;;;;34.00;50.50;;;;;;4399598;32;19960;-74
2022/08/08 13:29:13;;;;;;;;;;;33.90;49.80;;;;;;4399695;32;19961;-74
2022/08/08 13:31:46;;;;;;;;;;;34.30;49.10;;;;;;4400526;32;19978;-74
2022/08/08 13:34:26;;;;;;;;;;;34.80;49.30;;;;;;4399268;32;19946;-74
2022/08/08 13:36:55;;;;;;;;;;;34.20;49.60;;;;;;4399237;32;19961;-74
2022/08/08 13:39:21;;;;;;;;;;;34.10;49.30;;;;;;4399399;32;19953;-74
2022/08/08 13:41:47;;;;;;;;;;;34.40;49.30;;;;;;4399350;32;19958;-74
2022/08/08 13:44:12;;;;;;;;;;;34.60;49.20;;;;;;4400135;32;20008;-73
2022/08/08 13:46:38;;;;;;;;;;;34.30;48.60;;;;;;4399245;32;19960;-73
2022/08/08 13:49:14;;;;;;;;;;;33.60;48.60;;;;;;4398903;32;20325;-73
2022/08/08 13:51:50;;;;;;;;;;;32.70;49.90;;;;;;4399792;32;20302;-73
2022/08/08 13:54:19;;;;;;;;;;;32.80;49.50;;;;;;4402243;32;19961;-73
2022/08/08 13:56:44;;;;;;;;;;;33.20;49.10;;;;;;4406879;32;19956;-73
2022/08/08 13:59:10;;;;;;;;;;;33.00;49.40;;;;;;4399304;32;19942;-73
2022/08/08 14:01:35;;;;;;;;;;;33.00;49.50;;;;;;4400339;32;19941;-73
2022/08/08 14:04:01;;;;;;;;;;;33.30;48.90;;;;;;4399770;32;19954;-73
2022/08/08 14:06:27;;;;;;;;;;;33.00;48.90;;;;;;4398556;32;20264;-73
2022/08/08 14:08:53;;;;;;;;;;;32.50;49.80;;;;;;4400306;32;20354;-73
2022/08/08 14:11:21;;;;;;;;;;;31.80;50.90;;;;;;4399008;32;19949;-73
2022/08/08 14:13:46;;;;;;;;;;;31.60;50.60;;;;;;4400103;32;20632;-72
2022/08/08 14:16:12;;;;;;;;;;;31.00;51.50;;;;;;4399996;32;19945;-72
2022/08/08 14:18:55;;;;;;;;;;;31.30;51.50;;;;;;4399214;32;19956;-73
2022/08/08 14:21:29;;;;;;;;;;;32.00;50.70;;;;;;4385018;32;19966;-73
2022/08/08 14:23:55;;;;;;;;;;;32.60;50.10;;;;;;4399640;32;19970;-73
2022/08/08 14:26:21;;;;;;;;;;;33.50;48.60;;;;;;4399515;32;19945;-74
2022/08/08 14:28:55;;;;;;;;;;;33.90;48.20;;;;;;4399720;32;19957;-74
2022/08/08 14:31:21;;;;;;;;;;;33.40;48.70;;;;;;4398430;32;19958;-73